createdAt,value
2023-05-18T00:01:14.493Z,97330.00
2023-05-18T00:03:42.615Z,97322.88
2023-05-18T00:06:11.888Z,97329.25
2023-05-18T00:08:39.482Z,97321.19
2023-05-18T00:11:07.498Z,97324.88
2023-05-18T00:13:35.252Z,97320.28
2023-05-18T00:16:02.837Z,97321.41
2023-05-18T00:18:30.905Z,97320.88
2023-05-18T00:20:59.714Z,97314.47
2023-05-18T00:23:30.918Z,97316.81
2023-05-18T00:25:59.259Z,97320.22
2023-05-18T00:28:27.252Z,97317.91
2023-05-18T00:30:55.686Z,97316.00
2023-05-18T00:33:23.586Z,97312.75
2023-05-18T00:35:51.401Z,97315.91
2023-05-18T00:38:19.049Z,97310.56
2023-05-18T00:40:48.058Z,97317.16
2023-05-18T00:43:15.662Z,97311.47
2023-05-18T00:45:43.318Z,97318.41
2023-05-18T00:48:11.075Z,97307.22
2023-05-18T00:50:38.859Z,97308.03
2023-05-18T00:53:06.497Z,97314.56
2023-05-18T00:55:34.261Z,97306.53
2023-05-18T00:58:05.341Z,97308.56
2023-05-18T01:00:33.846Z,97302.84
2023-05-18T01:03:02.123Z,97307.91
2023-05-18T01:05:30.160Z,97296.03
2023-05-18T01:07:58.082Z,97296.88
2023-05-18T01:10:25.858Z,97298.09
2023-05-18T01:12:57.802Z,97297.63
2023-05-18T01:15:32.419Z,97297.53
2023-05-18T01:18:06.107Z,97290.19
2023-05-18T01:20:39.017Z,97294.03
2023-05-18T01:23:30.406Z,97291.38
2023-05-18T01:26:15.311Z,97296.66
2023-05-18T01:28:46.233Z,97291.19
2023-05-18T01:31:15.990Z,97287.31
2023-05-18T01:33:43.821Z,97286.66
2023-05-18T01:36:11.932Z,97283.16
2023-05-18T01:38:43.107Z,97287.81
2023-05-18T01:41:19.070Z,97287.97
2023-05-18T01:43:53.183Z,97288.41
2023-05-18T01:46:33.212Z,97289.13
2023-05-18T01:49:07.934Z,97285.47
2023-05-18T01:51:42.770Z,97285.22
2023-05-18T01:54:12.382Z,97285.81
2023-05-18T01:56:41.755Z,97274.63
2023-05-18T01:59:09.540Z,97279.28
2023-05-18T02:01:37.208Z,97270.28
2023-05-18T02:04:09.177Z,97275.91
2023-05-18T02:06:37.335Z,97273.91
2023-05-18T02:09:05.599Z,97269.94
2023-05-18T02:11:33.313Z,97271.19
2023-05-18T02:14:02.224Z,97263.16
2023-05-18T02:16:29.889Z,97258.41
2023-05-18T02:18:57.530Z,97260.72
2023-05-18T02:21:25.980Z,97260.81
2023-05-18T02:23:53.741Z,97260.91
2023-05-18T02:26:21.348Z,97261.59
2023-05-18T02:28:48.979Z,97262.03
2023-05-18T02:31:17.964Z,97255.34
2023-05-18T02:33:45.603Z,97259.56
2023-05-18T02:36:15.102Z,97259.00
2023-05-18T02:38:44.662Z,97263.88
2023-05-18T02:41:12.579Z,97261.59
2023-05-18T02:43:40.165Z,97249.44
2023-05-18T02:46:07.976Z,97251.75
2023-05-18T02:48:36.990Z,97249.00
2023-05-18T02:51:04.696Z,97248.19
2023-05-18T02:53:32.283Z,97250.66
2023-05-18T02:56:03.329Z,97241.63
2023-05-18T02:58:31.102Z,97240.63
2023-05-18T03:00:59.990Z,97243.66
2023-05-18T03:03:27.628Z,97238.91
2023-05-18T03:05:56.548Z,97244.41
2023-05-18T03:08:27.090Z,97254.78
2023-05-18T03:10:54.841Z,97240.31
2023-05-18T03:13:22.413Z,97239.94
2023-05-18T03:15:50.993Z,97238.72
2023-05-18T03:18:19.060Z,97239.00
2023-05-18T03:20:46.733Z,97239.00
2023-05-18T03:23:15.797Z,97243.91
2023-05-18T03:25:43.399Z,97244.97
2023-05-18T03:28:10.970Z,97247.13
2023-05-18T03:30:38.684Z,97242.75
2023-05-18T03:33:06.331Z,97241.81
2023-05-18T03:35:34.096Z,97237.00
2023-05-18T03:38:01.731Z,97244.47
2023-05-18T03:40:30.893Z,97241.63
2023-05-18T03:42:58.474Z,97253.34
2023-05-18T03:45:26.058Z,97248.72
2023-05-18T03:47:53.726Z,97244.69
2023-05-18T03:50:21.607Z,97252.75
2023-05-18T03:52:49.226Z,97251.78
2023-05-18T03:55:17.305Z,97244.31
2023-05-18T03:57:46.200Z,97252.09
2023-05-18T04:00:15.749Z,97244.75
2023-05-18T04:02:43.412Z,97250.19
2023-05-18T04:05:11.022Z,97253.31
2023-05-18T04:07:43.971Z,97254.94
2023-05-18T04:10:12.328Z,97252.66
2023-05-18T04:12:40.026Z,97255.94
2023-05-18T04:15:10.274Z,97249.94
2023-05-18T04:17:39.699Z,97251.31
2023-05-18T04:20:13.768Z,97255.13
2023-05-18T04:22:46.270Z,97258.03
2023-05-18T04:25:14.387Z,97258.84
2023-05-18T04:27:43.207Z,97264.13
2023-05-18T04:30:13.480Z,97259.69
2023-05-18T04:32:42.914Z,97262.31
2023-05-18T04:35:12.015Z,97263.81
2023-05-18T04:37:41.275Z,97263.50
2023-05-18T04:40:13.417Z,97272.53
2023-05-18T04:42:45.249Z,97276.78
2023-05-18T04:45:17.763Z,97271.44
2023-05-18T04:47:47.167Z,97270.06
2023-05-18T04:50:16.091Z,97273.03
2023-05-18T04:52:48.724Z,97273.03
2023-05-18T04:55:22.815Z,97282.47
2023-05-18T04:57:50.559Z,97283.13
2023-05-18T05:00:20.323Z,97278.63
2023-05-18T05:02:48.009Z,97283.88
2023-05-18T05:05:15.625Z,97282.19
2023-05-18T05:07:43.189Z,97285.34
2023-05-18T05:10:11.261Z,97272.91
2023-05-18T05:12:39.106Z,97275.03
2023-05-18T05:15:08.114Z,97280.75
2023-05-18T05:17:37.029Z,97277.44
2023-05-18T05:20:05.346Z,97276.84
2023-05-18T05:22:32.929Z,97278.88
2023-05-18T05:40:37.559Z,97285.75
2023-05-18T05:44:07.479Z,97283.22
2023-05-18T06:14:21.213Z,97281.63
2023-05-18T06:16:49.115Z,97284.97
2023-05-18T06:19:17.148Z,97282.41
2023-05-18T06:21:46.856Z,97287.66
2023-05-18T06:24:16.304Z,97277.44
2023-05-18T06:26:45.205Z,97284.47
2023-05-18T06:29:13.979Z,97285.31
2023-05-18T06:35:45.714Z,97273.97
2023-05-18T06:38:14.342Z,97282.63
2023-05-18T06:40:59.035Z,97285.09
2023-05-18T06:43:47.351Z,97281.38
2023-05-18T07:04:08.557Z,97284.06
2023-05-18T07:06:37.600Z,97286.31
2023-05-18T07:09:05.726Z,97284.69
2023-05-18T07:11:36.506Z,97287.94
2023-05-18T07:14:04.259Z,97288.41
2023-05-18T07:16:42.766Z,97286.59
2023-05-18T07:26:35.592Z,97297.22
2023-05-18T07:29:43.669Z,97296.03
2023-05-18T07:39:01.859Z,97291.59
2023-05-18T07:45:50.606Z,97296.06
2023-05-18T07:52:54.226Z,97293.41
2023-05-18T07:55:46.757Z,97288.13
2023-05-18T07:58:29.959Z,97287.84
2023-05-18T08:01:07.031Z,97292.03
2023-05-18T08:03:43.410Z,97289.34
2023-05-18T08:06:13.244Z,97277.44
2023-05-18T08:08:43.555Z,97278.81
2023-05-18T08:11:15.137Z,97272.94
2023-05-18T08:13:44.090Z,97277.09
2023-05-18T08:16:17.351Z,97269.97
2023-05-18T08:18:55.427Z,97280.19
2023-05-18T08:21:49.213Z,97275.84
2023-05-18T08:24:30.796Z,97281.97
2023-05-18T08:27:17.333Z,97267.94
2023-05-18T08:30:01.056Z,97270.47
2023-05-18T08:32:42.880Z,97269.72
2023-05-18T08:35:11.388Z,97267.63
2023-05-18T08:57:04.978Z,97270.03
2023-05-18T09:00:22.217Z,97262.13
2023-05-18T09:02:51.857Z,97258.13
2023-05-18T09:09:01.595Z,97256.97
2023-05-18T09:25:21.106Z,97265.91
2023-05-18T09:30:49.901Z,97247.53
2023-05-18T09:33:22.048Z,97253.63
2023-05-18T09:35:51.951Z,97249.97
2023-05-18T09:38:23.973Z,97251.22
2023-05-18T09:40:53.582Z,97253.25
2023-05-18T09:43:23.326Z,97249.81
2023-05-18T09:46:00.974Z,97253.06
2023-05-18T09:48:35.395Z,97252.03
2023-05-18T09:54:08.432Z,97253.88
2023-05-18T09:56:39.724Z,97239.31
2023-05-18T09:59:26.190Z,97241.75
2023-05-18T10:02:19.643Z,97243.59
2023-05-18T10:04:54.344Z,97235.53
2023-05-18T10:07:25.345Z,97236.34
2023-05-18T10:10:03.781Z,97245.31
2023-05-18T10:12:34.223Z,97236.84
2023-05-18T10:15:07.144Z,97235.84
2023-05-18T10:17:38.511Z,97239.09
2023-05-18T10:20:11.583Z,97232.00
2023-05-18T10:22:43.289Z,97238.09
2023-05-18T10:30:38.873Z,97228.56
2023-05-18T10:33:20.567Z,97225.53
2023-05-18T10:35:53.122Z,97229.78
2023-05-18T10:38:22.390Z,97223.72
2023-05-18T10:40:52.141Z,97224.31
2023-05-18T10:43:23.873Z,97218.03
2023-05-18T10:45:55.133Z,97216.59
2023-05-18T10:48:24.431Z,97222.47
2023-05-18T10:50:53.573Z,97224.69
2023-05-18T10:53:23.157Z,97207.28
2023-05-18T10:55:51.731Z,97214.56
2023-05-18T10:58:21.277Z,97216.78
2023-05-18T11:00:51.964Z,97208.06
2023-05-18T11:03:22.358Z,97208.03
2023-05-18T11:05:51.226Z,97209.66
2023-05-18T11:08:28.425Z,97199.28
2023-05-18T11:11:04.350Z,97208.41
2023-05-18T11:13:33.622Z,97205.34
2023-05-18T11:16:08.821Z,97199.69
2023-05-18T11:18:44.761Z,97195.81
2023-05-18T11:21:36.555Z,97193.78
2023-05-18T11:24:19.911Z,97199.44
2023-05-18T11:26:49.587Z,97213.44
2023-05-18T11:29:19.246Z,97195.38
2023-05-18T11:31:48.089Z,97195.59
2023-05-18T11:34:39.735Z,97203.84
2023-05-18T11:37:10.540Z,97196.94
2023-05-18T11:39:47.978Z,97197.69
2023-05-18T11:42:20.552Z,97200.53
2023-05-18T11:44:54.312Z,97198.91
2023-05-18T11:47:22.972Z,97203.38
2023-05-18T11:49:53.202Z,97213.91
2023-05-18T11:52:22.935Z,97201.34
2023-05-18T11:54:53.489Z,97195.03
2023-05-18T11:57:25.093Z,97204.78
2023-05-18T11:59:56.865Z,97204.59
2023-05-18T12:02:27.241Z,97203.00
2023-05-18T12:05:00.520Z,97195.94
2023-05-18T12:07:30.458Z,97192.50
2023-05-18T12:09:59.988Z,97195.53
2023-05-18T12:12:30.448Z,97190.84
2023-05-18T12:15:00.218Z,97188.97
2023-05-18T12:17:41.336Z,97185.50
2023-05-18T12:20:13.467Z,97188.34
2023-05-18T12:22:48.164Z,97187.94
2023-05-18T12:25:24.884Z,97186.34
2023-05-18T12:27:56.693Z,97177.59
2023-05-18T12:30:35.195Z,97188.09
2023-05-18T12:33:07.901Z,97176.31
2023-05-18T12:35:39.944Z,97189.06
2023-05-18T12:38:09.277Z,97179.31
2023-05-18T12:40:45.106Z,97174.63
2023-05-18T12:43:15.572Z,97180.31
2023-05-18T12:45:47.118Z,97175.47
2023-05-18T12:48:16.824Z,97177.13
2023-05-18T12:50:52.003Z,97176.16
2023-05-18T12:53:25.043Z,97179.59
2023-05-18T12:56:02.781Z,97185.25
2023-05-18T12:58:36.045Z,97184.44
2023-05-18T13:01:10.802Z,97168.41
2023-05-18T13:03:42.515Z,97161.09
2023-05-18T13:06:15.007Z,97169.59
2023-05-18T13:08:46.777Z,97175.28
2023-05-18T13:11:17.706Z,97161.84
2023-05-18T13:14:15.644Z,97169.34
2023-05-18T13:16:46.872Z,97167.88
2023-05-18T13:19:20.148Z,97173.56
2023-05-18T13:22:02.022Z,97162.22
2023-05-18T13:24:30.358Z,97167.50
2023-05-18T13:27:00.427Z,97170.72
2023-05-18T13:29:28.618Z,97169.09
2023-05-18T13:31:56.358Z,97166.88
2023-05-18T13:34:24.460Z,97163.63
2023-05-18T13:36:53.722Z,97176.63
2023-05-18T13:39:22.158Z,97169.94
2023-05-18T13:41:49.946Z,97167.50
2023-05-18T13:44:18.280Z,97163.69
2023-05-18T13:46:47.149Z,97159.84
2023-05-18T13:49:14.934Z,97153.78
2023-05-18T13:51:43.809Z,97156.59
2023-05-18T13:54:13.265Z,97159.28
2023-05-18T13:56:41.049Z,97151.41
2023-05-18T13:59:08.904Z,97156.31
2023-05-18T14:01:36.899Z,97141.50
2023-05-18T14:04:04.731Z,97148.03
2023-05-18T14:06:32.509Z,97145.00
2023-05-18T14:09:01.534Z,97136.47
2023-05-18T14:11:34.440Z,97141.16
2023-05-18T14:14:02.598Z,97141.59
2023-05-18T14:19:05.540Z,97130.03
2023-05-18T14:21:33.224Z,97129.25
2023-05-18T14:24:04.049Z,97135.75
2023-05-18T14:26:33.104Z,97133.31
2023-05-18T14:29:01.010Z,97123.22
2023-05-18T14:31:28.768Z,97124.81
2023-05-18T14:33:56.508Z,97126.84
2023-05-18T14:36:24.318Z,97123.59
2023-05-18T14:38:52.184Z,97122.41
2023-05-18T14:41:21.306Z,97113.34
2023-05-18T14:43:51.101Z,97118.00
2023-05-18T14:46:18.919Z,97112.72
2023-05-18T14:48:46.594Z,97109.25
2023-05-18T14:51:15.842Z,97111.91
2023-05-18T14:53:43.480Z,97104.00
2023-05-18T14:56:12.269Z,97110.09
2023-05-18T14:58:39.857Z,97112.72
2023-05-18T15:01:08.803Z,97113.72
2023-05-18T15:03:36.541Z,97116.38
2023-05-18T15:06:04.316Z,97113.72
2023-05-18T15:08:32.049Z,97103.19
2023-05-18T15:10:59.776Z,97107.22
2023-05-18T15:13:27.391Z,97112.69
2023-05-18T15:15:55.257Z,97115.94
2023-05-18T15:18:24.409Z,97113.28
2023-05-18T15:20:52.400Z,97111.88
2023-05-18T15:23:20.085Z,97118.00
2023-05-18T15:25:47.852Z,97116.81
2023-05-18T15:28:15.682Z,97109.91
2023-05-18T15:30:43.287Z,97106.25
2023-05-18T15:33:10.973Z,97104.22
2023-05-18T15:35:39.972Z,97111.91
2023-05-18T15:38:07.560Z,97115.97
2023-05-18T15:40:35.197Z,97108.66
2023-05-18T15:43:03.072Z,97113.94
2023-05-18T15:45:30.753Z,97107.03
2023-05-18T15:47:58.389Z,97115.38
2023-05-18T15:50:26.699Z,97115.56
2023-05-18T15:53:10.753Z,97113.13
2023-05-18T15:55:38.869Z,97106.47
2023-05-18T15:58:06.380Z,97107.50
2023-05-18T16:00:33.952Z,97108.50
2023-05-18T16:03:01.673Z,97108.13
2023-05-18T16:05:29.428Z,97096.97
2023-05-18T16:07:58.340Z,97101.22
2023-05-18T16:10:25.950Z,97099.63
2023-05-18T16:12:53.570Z,97102.66
2023-05-18T16:15:24.381Z,97103.09
2023-05-18T16:17:52.170Z,97103.28
2023-05-18T16:20:21.074Z,97110.59
2023-05-18T16:22:49.253Z,97107.56
2023-05-18T16:25:18.238Z,97102.69
2023-05-18T16:27:45.812Z,97108.16
2023-05-18T16:30:13.733Z,97104.09
2023-05-18T16:32:43.205Z,97105.13
2023-05-18T16:35:11.170Z,97105.16
2023-05-18T16:37:39.359Z,97115.72
2023-05-18T16:40:08.377Z,97120.19
2023-05-18T16:42:37.440Z,97105.22
2023-05-18T16:45:05.655Z,97111.31
2023-05-18T16:47:33.249Z,97105.44
2023-05-18T16:50:01.416Z,97110.09
2023-05-18T16:52:29.127Z,97101.59
2023-05-18T16:54:56.679Z,97104.44
2023-05-18T16:57:27.313Z,97116.19
2023-05-18T16:59:56.564Z,97109.72
2023-05-18T17:02:24.321Z,97110.13
2023-05-18T17:04:52.262Z,97107.09
2023-05-18T17:07:19.778Z,97122.28
2023-05-18T17:09:47.299Z,97117.44
2023-05-18T17:12:14.891Z,97122.47
2023-05-18T17:14:42.421Z,97123.09
2023-05-18T17:17:11.534Z,97124.31
2023-05-18T17:19:40.293Z,97126.34
2023-05-18T17:22:09.532Z,97131.41
2023-05-18T17:24:37.230Z,97129.16
2023-05-18T17:27:05.809Z,97137.88
2023-05-18T17:29:33.408Z,97132.41
2023-05-18T17:32:00.979Z,97135.44
2023-05-18T17:34:30.581Z,97133.41
2023-05-18T17:36:58.660Z,97137.22
2023-05-18T17:39:26.454Z,97136.63
2023-05-18T17:41:54.436Z,97135.22
2023-05-18T17:44:22.098Z,97143.28
2023-05-18T17:46:50.936Z,97141.25
2023-05-18T17:49:18.651Z,97136.38
2023-05-18T17:51:47.563Z,97135.16
2023-05-18T17:54:15.314Z,97138.81
2023-05-18T17:56:42.898Z,97139.41
2023-05-18T17:59:10.763Z,97142.66
2023-05-18T18:01:38.429Z,97142.41
2023-05-18T18:04:06.169Z,97132.31
2023-05-18T18:06:35.532Z,97144.03
2023-05-18T18:09:05.561Z,97146.84
2023-05-18T18:11:35.160Z,97143.78
2023-05-18T18:14:03.190Z,97148.84
2023-05-18T18:16:30.871Z,97144.63
2023-05-18T18:18:59.417Z,97147.63
2023-05-18T18:21:27.044Z,97147.63
2023-05-18T18:23:54.728Z,97154.88
2023-05-18T18:26:23.623Z,97150.84
2023-05-18T18:28:51.197Z,97154.69
2023-05-18T18:31:20.740Z,97155.88
2023-05-18T18:33:50.279Z,97155.63
2023-05-18T18:36:18.123Z,97155.25
2023-05-18T18:38:46.001Z,97154.81
2023-05-18T18:41:17.033Z,97158.84
2023-05-18T18:43:45.977Z,97169.75
2023-05-18T18:46:13.685Z,97151.94
2023-05-18T18:48:41.261Z,97162.00
2023-05-18T18:51:08.798Z,97161.78
2023-05-18T18:53:36.347Z,97168.44
2023-05-18T18:56:03.918Z,97166.78
2023-05-18T18:58:31.502Z,97173.25
2023-05-18T19:01:00.487Z,97175.47
2023-05-18T19:03:28.200Z,97169.59
2023-05-18T19:05:55.909Z,97172.59
2023-05-18T19:08:23.512Z,97173.00
2023-05-18T19:10:51.212Z,97180.03
2023-05-18T19:13:18.750Z,97180.22
2023-05-18T19:15:47.089Z,97182.03
2023-05-18T19:18:16.130Z,97180.41
2023-05-18T19:20:43.746Z,97183.25
2023-05-18T19:23:11.421Z,97183.59
2023-05-18T19:31:35.318Z,97186.63
2023-05-18T19:34:17.954Z,97195.69
2023-05-18T19:39:40.287Z,97195.25
2023-05-18T19:45:20.633Z,97197.66
2023-05-18T19:48:18.970Z,97198.00
2023-05-18T19:50:53.561Z,97208.91
2023-05-18T19:53:23.688Z,97209.88
2023-05-18T19:56:19.359Z,97208.47
2023-05-18T20:01:41.552Z,97207.22
2023-05-18T20:11:30.411Z,97216.09
2023-05-18T20:23:47.421Z,97221.91
2023-05-18T20:30:33.434Z,97209.38
2023-05-18T20:54:12.157Z,97208.69
2023-05-18T20:56:51.772Z,97205.63
2023-05-18T20:59:26.395Z,97210.88
2023-05-18T21:01:57.079Z,97202.19
2023-05-18T21:04:34.348Z,97208.25
2023-05-18T21:07:02.181Z,97205.78
2023-05-18T21:09:32.029Z,97205.16
2023-05-18T21:11:59.634Z,97195.69
2023-05-18T21:14:27.210Z,97198.31
2023-05-18T21:16:54.859Z,97197.69
2023-05-18T21:19:23.032Z,97195.25
2023-05-18T21:21:50.641Z,97195.25
2023-05-18T21:24:18.191Z,97191.81
2023-05-18T21:26:47.134Z,97192.81
2023-05-18T21:29:14.691Z,97194.00
2023-05-18T21:31:42.330Z,97195.81
2023-05-18T21:34:10.031Z,97186.34
2023-05-18T21:36:37.626Z,97189.94
2023-05-18T21:39:09.004Z,97191.75
2023-05-18T21:41:39.179Z,97191.94
2023-05-18T21:44:08.131Z,97186.06
2023-05-18T21:46:36.470Z,97184.47
2023-05-18T21:49:05.399Z,97186.06
2023-05-18T21:51:33.160Z,97192.31
2023-05-18T21:54:01.252Z,97181.84
2023-05-18T21:56:29.852Z,97188.69
2023-05-18T21:58:57.801Z,97190.50
2023-05-18T22:01:26.724Z,97194.94
2023-05-18T22:03:54.807Z,97195.75
2023-05-18T22:06:22.435Z,97205.25
2023-05-18T22:08:51.474Z,97206.25
2023-05-18T22:11:19.028Z,97200.81
2023-05-18T22:13:46.616Z,97200.19
2023-05-18T22:16:14.277Z,97196.75
2023-05-18T22:18:43.200Z,97197.56
2023-05-18T22:21:10.765Z,97197.56
2023-05-18T22:23:39.150Z,97196.13
2023-05-18T22:26:07.072Z,97193.69
2023-05-18T22:28:34.700Z,97186.81
2023-05-18T22:31:02.273Z,97187.81
2023-05-18T22:33:29.849Z,97189.44
2023-05-18T22:35:58.775Z,97186.00
2023-05-18T22:38:26.791Z,97184.19
2023-05-18T22:40:54.374Z,97187.81
2023-05-18T22:43:21.936Z,97185.38
2023-05-18T22:45:49.837Z,97186.38
2023-05-18T22:48:17.471Z,97187.38
2023-05-18T22:50:45.031Z,97191.00
2023-05-18T22:53:13.986Z,97184.13
2023-05-18T22:55:41.581Z,97184.34
2023-05-18T22:58:09.182Z,97184.50
2023-05-18T23:00:36.713Z,97180.63
2023-05-18T23:03:04.565Z,97184.44
2023-05-18T23:05:32.739Z,97191.69
2023-05-18T23:08:02.675Z,97190.06
2023-05-18T23:10:31.925Z,97188.44
2023-05-18T23:12:59.837Z,97189.63
2023-05-18T23:15:27.782Z,97189.63
2023-05-18T23:17:55.498Z,97188.81
2023-05-18T23:20:23.715Z,97187.38
2023-05-18T23:22:51.504Z,97188.53
2023-05-18T23:25:19.294Z,97183.06
2023-05-18T23:27:48.183Z,97183.06
2023-05-18T23:30:16.003Z,97179.97
2023-05-18T23:32:45.385Z,97181.16
2023-05-18T23:35:14.498Z,97182.16
2023-05-18T23:37:43.582Z,97183.97
2023-05-18T23:40:12.953Z,97180.53
2023-05-18T23:42:41.475Z,97180.72
2023-05-18T23:45:11.879Z,97187.72
2023-05-18T23:47:39.934Z,97186.13
2023-05-18T23:50:09.008Z,97186.13
2023-05-18T23:52:37.656Z,97181.22
2023-05-18T23:55:08.298Z,97181.63
2023-05-18T23:57:36.274Z,97185.41
